createdAt,value
2018-06-16T00:00:26.340Z,97815.85
2018-06-16T00:02:55.392Z,97814.73
2018-06-16T00:05:24.716Z,97817.45
2018-06-16T00:07:53.627Z,97820.49
2018-06-16T00:10:23.018Z,97823.77
2018-06-16T00:12:52.862Z,97820.44
2018-06-16T00:15:21.847Z,97816.84
2018-06-16T00:17:51.054Z,97822.00
2018-06-16T00:20:20.707Z,97817.88
2018-06-16T00:22:49.740Z,97819.48
2018-06-16T00:25:18.733Z,97819.48
2018-06-16T00:27:47.615Z,97819.72
2018-06-16T00:30:16.695Z,97819.72
2018-06-16T00:32:46.571Z,97820.29
2018-06-16T00:35:15.510Z,97817.55
2018-06-16T00:37:44.535Z,97822.75
2018-06-16T00:40:13.540Z,97821.66
2018-06-16T00:42:43.296Z,97821.92
2018-06-16T00:45:12.244Z,97823.58
2018-06-16T00:47:41.384Z,97825.48
2018-06-16T00:50:11.309Z,97821.98
2018-06-16T00:52:41.028Z,97825.81
2018-06-16T00:55:10.130Z,97820.61
2018-06-16T00:57:45.071Z,97818.41
2018-06-16T01:00:14.927Z,97817.88
2018-06-16T01:02:43.865Z,97821.44
2018-06-16T01:05:12.913Z,97815.97
2018-06-16T01:07:42.075Z,97816.50
2018-06-16T01:10:11.965Z,97813.72
2018-06-16T01:12:41.869Z,97812.32
2018-06-16T01:15:10.901Z,97816.41
2018-06-16T01:17:39.837Z,97813.28
2018-06-16T01:20:09.647Z,97814.34
2018-06-16T01:22:38.582Z,97817.16
2018-06-16T01:25:07.584Z,97815.47
2018-06-16T01:27:37.757Z,97821.79
2018-06-16T01:30:06.769Z,97834.88
2018-06-16T01:32:35.676Z,97838.66
2018-06-16T01:35:05.894Z,97838.09
2018-06-16T01:37:34.819Z,97847.98
2018-06-16T01:40:04.160Z,97845.25
2018-06-16T01:42:33.235Z,97846.86
2018-06-16T01:45:02.266Z,97850.43
2018-06-16T01:47:31.204Z,97843.83
2018-06-16T01:50:00.949Z,97850.64
2018-06-16T01:52:29.864Z,97835.84
2018-06-16T01:54:58.793Z,97842.41
2018-06-16T01:57:28.905Z,97833.58
2018-06-16T01:59:57.823Z,97839.14
2018-06-16T02:02:26.828Z,97827.84
2018-06-16T02:04:55.924Z,97836.41
2018-06-16T02:07:24.866Z,97834.44
2018-06-16T02:09:56.769Z,97824.33
2018-06-16T02:12:25.704Z,97816.66
2018-06-16T02:14:54.754Z,97821.06
2018-06-16T02:17:23.774Z,97818.33
2018-06-16T02:19:52.833Z,97822.67
2018-06-16T02:22:21.866Z,97818.24
2018-06-16T02:24:50.958Z,97819.58
2018-06-16T02:27:19.883Z,97819.80
2018-06-16T02:29:48.882Z,97815.69
2018-06-16T02:32:17.918Z,97821.72
2018-06-16T02:34:46.923Z,97820.03
2018-06-16T02:37:15.904Z,97812.84
2018-06-16T02:39:45.020Z,97820.27
2018-06-16T02:42:13.967Z,97827.38
2018-06-16T02:44:44.531Z,97831.77
2018-06-16T02:47:13.564Z,97839.98
2018-06-16T02:49:42.492Z,97833.91
2018-06-16T02:52:11.401Z,97836.14
2018-06-16T02:54:40.373Z,97834.77
2018-06-16T02:57:10.220Z,97843.30
2018-06-16T02:59:40.348Z,97848.00
2018-06-16T03:02:10.044Z,97847.77
2018-06-16T03:04:39.063Z,97848.33
2018-06-16T03:07:08.877Z,97855.76
2018-06-16T03:09:38.462Z,97859.91
2018-06-16T03:12:08.221Z,97862.17
2018-06-16T03:14:37.428Z,97859.23
2018-06-16T03:17:06.505Z,97859.79
2018-06-16T03:19:35.478Z,97850.52
2018-06-16T03:22:04.481Z,97860.71
2018-06-16T03:24:33.480Z,97864.84
2018-06-16T03:27:02.504Z,97864.39
2018-06-16T03:29:31.638Z,97853.44
2018-06-16T03:32:00.740Z,97856.28
2018-06-16T03:34:29.665Z,97848.85
2018-06-16T03:36:58.664Z,97862.61
2018-06-16T03:39:27.611Z,97864.84
2018-06-16T03:41:56.528Z,97868.22
2018-06-16T03:44:25.585Z,97860.89
2018-06-16T03:46:54.588Z,97859.03
2018-06-16T03:49:23.552Z,97855.83
2018-06-16T03:51:52.680Z,97850.47
2018-06-16T03:54:21.647Z,97858.48
2018-06-16T03:56:51.543Z,97864.05
2018-06-16T03:59:20.676Z,97866.02
2018-06-16T04:01:49.926Z,97869.38
2018-06-16T04:04:18.924Z,97872.52
2018-06-16T04:06:48.497Z,97870.98
2018-06-16T04:09:17.452Z,97874.64
2018-06-16T04:11:46.476Z,97870.91
2018-06-16T04:14:15.459Z,97877.02
2018-06-16T04:16:44.399Z,97872.20
2018-06-16T04:19:14.084Z,97874.80
2018-06-16T04:21:43.184Z,97862.28
2018-06-16T04:24:12.184Z,97866.76
2018-06-16T04:26:41.150Z,97861.05
2018-06-16T04:29:10.844Z,97868.80
2018-06-16T04:31:39.809Z,97874.87
2018-06-16T04:34:08.739Z,97867.53
2018-06-16T04:36:39.423Z,97867.63
2018-06-16T04:39:09.831Z,97864.94
2018-06-16T04:41:39.092Z,97863.64
2018-06-16T04:44:08.073Z,97867.22
2018-06-16T04:46:37.131Z,97862.10
2018-06-16T04:49:06.965Z,97867.96
2018-06-16T04:51:36.164Z,97869.16
2018-06-16T04:54:05.332Z,97876.91
2018-06-16T04:56:34.393Z,97881.69
2018-06-16T04:59:03.347Z,97877.88
2018-06-16T05:01:32.299Z,97882.89
2018-06-16T05:04:01.547Z,97885.40
2018-06-16T05:06:30.569Z,97887.91
2018-06-16T05:08:59.527Z,97885.44
2018-06-16T05:11:28.715Z,97887.34
2018-06-16T05:13:57.686Z,97889.27
2018-06-16T05:16:26.663Z,97879.59
2018-06-16T05:18:55.736Z,97879.81
2018-06-16T05:21:24.660Z,97879.78
2018-06-16T05:23:53.713Z,97875.55
2018-06-16T05:26:23.350Z,97879.38
2018-06-16T05:28:52.409Z,97872.16
2018-06-16T05:31:21.672Z,97883.59
2018-06-16T05:33:51.243Z,97882.41
2018-06-16T05:36:21.027Z,97878.11
2018-06-16T05:38:50.499Z,97878.25
2018-06-16T05:41:19.619Z,97882.76
2018-06-16T05:43:48.564Z,97882.91
2018-06-16T05:46:17.595Z,97896.84
2018-06-16T05:48:46.626Z,97898.23
2018-06-16T05:51:15.576Z,97897.27
2018-06-16T05:53:44.553Z,97895.06
2018-06-16T05:56:16.147Z,97890.81
2018-06-16T05:58:45.099Z,97888.36
2018-06-16T06:01:14.097Z,97889.37
2018-06-16T06:03:43.581Z,97896.83
2018-06-16T06:06:12.664Z,97900.07
2018-06-16T06:08:41.658Z,97900.65
2018-06-16T06:11:11.224Z,97903.16
2018-06-16T06:13:40.213Z,97906.44
2018-06-16T06:16:09.368Z,97919.86
2018-06-16T06:18:39.247Z,97920.66
2018-06-16T06:21:08.193Z,97922.57
2018-06-16T06:23:37.262Z,97916.91
2018-06-16T06:26:06.286Z,97918.48
2018-06-16T06:28:36.488Z,97916.71
2018-06-16T06:31:05.465Z,97920.79
2018-06-16T06:33:34.343Z,97926.06
2018-06-16T06:36:03.391Z,97921.00
2018-06-16T06:38:32.376Z,97919.27
2018-06-16T06:41:01.360Z,97912.49
2018-06-16T06:43:30.397Z,97913.43
2018-06-16T06:45:59.554Z,97907.63
2018-06-16T06:48:29.179Z,97897.37
2018-06-16T06:50:58.680Z,97894.33
2018-06-16T06:53:27.821Z,97896.73
2018-06-16T06:55:57.322Z,97891.41
2018-06-16T06:58:26.249Z,97897.92
2018-06-16T07:00:55.390Z,97888.19
2018-06-16T07:03:24.385Z,97894.34
2018-06-16T07:05:53.336Z,97895.22
2018-06-16T07:08:23.165Z,97891.56
2018-06-16T07:10:52.370Z,97900.14
2018-06-16T07:13:21.368Z,97892.28
2018-06-16T07:15:50.962Z,97892.36
2018-06-16T07:18:20.072Z,97884.31
2018-06-16T07:20:49.073Z,97886.75
2018-06-16T07:23:18.123Z,97889.62
2018-06-16T07:25:47.166Z,97888.09
2018-06-16T07:28:16.176Z,97893.21
2018-06-16T07:30:45.421Z,97891.45
2018-06-16T07:33:14.611Z,97886.91
2018-06-16T07:35:43.560Z,97883.90
2018-06-16T07:38:12.864Z,97887.68
2018-06-16T07:40:41.912Z,97891.49
2018-06-16T07:43:11.652Z,97893.55
2018-06-16T07:45:41.252Z,97897.00
2018-06-16T07:48:10.390Z,97888.00
2018-06-16T07:50:39.323Z,97889.47
2018-06-16T07:53:08.312Z,97891.48
2018-06-16T07:55:37.231Z,97897.72
2018-06-16T07:58:06.204Z,97884.89
2018-06-16T08:00:35.324Z,97883.25
2018-06-16T08:03:04.349Z,97873.39
2018-06-16T08:05:33.293Z,97868.06
2018-06-16T08:08:02.331Z,97869.71
2018-06-16T08:10:31.394Z,97866.54
2018-06-16T08:13:00.364Z,97862.98
2018-06-16T08:15:30.292Z,97862.94
2018-06-16T08:17:59.287Z,97865.37
2018-06-16T08:20:28.227Z,97857.56
2018-06-16T08:22:57.332Z,97858.51
2018-06-16T08:25:26.916Z,97857.45
2018-06-16T08:27:56.783Z,97856.09
2018-06-16T08:30:25.835Z,97859.14
2018-06-16T08:32:54.769Z,97848.70
2018-06-16T08:35:24.745Z,97844.52
2018-06-16T08:37:53.880Z,97840.60
2018-06-16T08:40:23.541Z,97840.95
2018-06-16T08:42:52.693Z,97836.56
2018-06-16T08:45:22.024Z,97842.75
2018-06-16T08:47:50.952Z,97843.08
2018-06-16T08:50:19.863Z,97848.23
2018-06-16T08:52:49.042Z,97843.02
2018-06-16T08:55:18.218Z,97854.06
2018-06-16T08:57:47.846Z,97855.58
2018-06-16T09:00:16.920Z,97862.58
2018-06-16T09:02:45.862Z,97860.36
2018-06-16T09:05:15.414Z,97850.18
2018-06-16T09:07:44.997Z,97854.73
2018-06-16T09:10:14.164Z,97859.19
2018-06-16T09:12:43.269Z,97850.94
2018-06-16T09:15:12.254Z,97852.72
2018-06-16T09:17:41.310Z,97856.11
2018-06-16T09:20:10.286Z,97857.42
2018-06-16T09:22:40.276Z,97851.64
2018-06-16T09:25:09.227Z,97847.62
2018-06-16T09:27:38.777Z,97854.09
2018-06-16T09:30:07.765Z,97862.55
2018-06-16T09:32:36.702Z,97866.96
2018-06-16T09:35:05.755Z,97871.63
2018-06-16T09:37:34.830Z,97888.09
2018-06-16T09:40:04.006Z,97901.19
2018-06-16T09:42:32.973Z,97896.55
2018-06-16T09:45:05.299Z,97899.82
2018-06-16T09:47:36.103Z,97911.92
2018-06-16T09:50:05.741Z,97924.40
2018-06-16T09:52:34.724Z,97931.14
2018-06-16T09:55:03.760Z,97934.31
2018-06-16T09:57:32.790Z,97942.58
2018-06-16T10:00:01.753Z,97945.38
2018-06-16T10:02:30.682Z,97944.48
2018-06-16T10:04:59.774Z,97956.48
2018-06-16T10:07:28.705Z,97968.16
2018-06-16T10:09:58.459Z,97967.83
2018-06-16T10:12:28.270Z,97984.24
2018-06-16T10:14:57.331Z,97981.00
2018-06-16T10:17:26.344Z,97977.41
2018-06-16T10:19:55.339Z,97988.64
2018-06-16T10:22:25.009Z,97989.34
2018-06-16T10:24:54.040Z,97993.85
2018-06-16T10:27:23.260Z,97997.39
2018-06-16T10:29:52.415Z,98010.44
2018-06-16T10:32:21.349Z,98018.63
2018-06-16T10:34:50.405Z,98016.09
2018-06-16T10:37:19.365Z,98009.61
2018-06-16T10:39:48.268Z,98005.73
2018-06-16T10:42:17.311Z,98003.29
2018-06-16T10:44:46.347Z,97999.26
2018-06-16T10:47:15.387Z,98004.77
2018-06-16T10:49:44.565Z,98007.80
2018-06-16T10:52:13.528Z,98013.00
2018-06-16T10:54:42.536Z,98015.59
2018-06-16T10:57:11.717Z,98007.51
2018-06-16T10:59:40.683Z,98007.86
2018-06-16T11:02:09.798Z,98012.36
2018-06-16T11:04:39.486Z,98007.50
2018-06-16T11:07:08.549Z,98012.96
2018-06-16T11:09:39.050Z,98004.58
2018-06-16T11:12:08.138Z,98018.28
2018-06-16T11:14:37.736Z,98020.16
2018-06-16T11:17:07.051Z,98015.70
2018-06-16T11:19:36.130Z,98009.55
2018-06-16T11:22:05.653Z,98012.99
2018-06-16T11:24:34.646Z,97998.20
2018-06-16T11:27:03.708Z,97997.69
2018-06-16T11:29:32.643Z,98001.34
2018-06-16T11:32:04.102Z,97995.58
2018-06-16T11:34:33.209Z,97997.30
2018-06-16T11:37:02.222Z,97996.27
2018-06-16T11:39:31.188Z,97989.97
2018-06-16T11:42:00.172Z,97987.83
2018-06-16T11:44:29.140Z,97972.69
2018-06-16T11:46:58.129Z,97973.72
2018-06-16T11:49:27.229Z,97976.13
2018-06-16T11:51:56.983Z,97967.31
2018-06-16T11:54:25.910Z,97961.11
2018-06-16T11:56:56.221Z,97954.00
2018-06-16T11:59:25.176Z,97954.45
2018-06-16T12:01:54.791Z,97949.73
2018-06-16T12:04:23.957Z,97948.89
2018-06-16T12:06:52.973Z,97939.34
2018-06-16T12:09:22.265Z,97929.98
2018-06-16T12:11:51.332Z,97933.19
2018-06-16T12:14:20.844Z,97944.36
2018-06-16T12:16:49.802Z,97955.55
2018-06-16T12:19:18.884Z,97951.92
2018-06-16T12:21:47.896Z,97952.75
2018-06-16T12:24:16.844Z,97959.14
2018-06-16T12:26:45.859Z,97975.08
2018-06-16T12:29:14.850Z,97976.51
2018-06-16T12:31:43.796Z,97976.13
2018-06-16T12:34:12.881Z,97966.11
2018-06-16T12:36:41.799Z,97948.85
2018-06-16T12:39:11.783Z,97940.73
2018-06-16T12:41:41.057Z,97933.59
2018-06-16T12:44:10.032Z,97923.41
2018-06-16T12:46:39.605Z,97920.65
2018-06-16T12:49:09.043Z,97919.87
2018-06-16T12:51:38.024Z,97924.08
2018-06-16T12:54:07.350Z,97919.55
2018-06-16T12:56:36.373Z,97912.21
2018-06-16T12:59:05.324Z,97907.13
2018-06-16T13:01:34.252Z,97891.22
2018-06-16T13:04:03.991Z,97885.81
2018-06-16T13:06:33.526Z,97870.80
2018-06-16T13:09:02.576Z,97875.25
2018-06-16T13:11:31.642Z,97860.48
2018-06-16T13:14:00.551Z,97857.52
2018-06-16T13:16:29.489Z,97852.37
2018-06-16T13:18:58.775Z,97850.49
2018-06-16T13:21:27.927Z,97838.44
2018-06-16T13:23:57.188Z,97830.22
2018-06-16T13:26:26.261Z,97819.81
2018-06-16T13:28:55.764Z,97811.57
2018-06-16T13:31:25.131Z,97804.45
2018-06-16T13:33:54.160Z,97798.16
2018-06-16T13:36:23.175Z,97795.16
2018-06-16T13:38:52.156Z,97784.13
2018-06-16T13:41:21.223Z,97782.20
2018-06-16T13:43:50.232Z,97780.30
2018-06-16T13:46:19.206Z,97786.36
2018-06-16T13:48:48.320Z,97791.33
2018-06-16T13:51:17.378Z,97796.55
2018-06-16T13:53:46.350Z,97799.03
2018-06-16T13:56:16.032Z,97807.80
2018-06-16T13:58:45.065Z,97804.50
2018-06-16T14:01:14.050Z,97804.50
2018-06-16T14:03:43.122Z,97810.52
2018-06-16T14:06:12.746Z,97811.33
2018-06-16T14:08:41.772Z,97824.81
2018-06-16T14:11:10.783Z,97832.80
2018-06-16T14:13:39.707Z,97836.87
2018-06-16T14:16:08.754Z,97837.66
2018-06-16T14:18:37.803Z,97838.97
2018-06-16T14:21:06.950Z,97838.39
2018-06-16T14:23:36.099Z,97848.23
2018-06-16T14:26:05.261Z,97847.12
2018-06-16T14:28:34.269Z,97846.54
2018-06-16T14:31:03.223Z,97862.23
2018-06-16T14:33:32.299Z,97867.44
2018-06-16T14:36:01.255Z,97871.25
2018-06-16T14:38:30.251Z,97871.20
2018-06-16T14:40:59.551Z,97867.06
2018-06-16T14:43:28.516Z,97869.23
2018-06-16T14:45:57.452Z,97868.16
2018-06-16T14:48:26.461Z,97868.19
2018-06-16T14:50:55.542Z,97880.30
2018-06-16T14:53:24.512Z,97882.54
2018-06-16T14:55:54.432Z,97876.19
2018-06-16T14:58:29.878Z,97872.88
2018-06-16T15:00:59.579Z,97864.66
2018-06-16T15:03:29.597Z,97867.41
2018-06-16T15:05:58.504Z,97864.16
2018-06-16T15:08:27.689Z,97858.61
2018-06-16T15:10:56.713Z,97858.34
2018-06-16T15:13:25.668Z,97846.97
2018-06-16T15:15:54.757Z,97841.98
2018-06-16T15:18:24.322Z,97832.23
2018-06-16T15:20:53.984Z,97824.41
2018-06-16T15:23:23.103Z,97832.09
2018-06-16T15:25:52.974Z,97835.41
2018-06-16T15:28:21.936Z,97842.55
2018-06-16T15:30:51.056Z,97845.01
2018-06-16T15:33:19.999Z,97848.88
2018-06-16T15:35:49.031Z,97857.74
2018-06-16T15:38:18.122Z,97853.88
2018-06-16T15:40:47.952Z,97850.05
2018-06-16T15:43:16.910Z,97846.80
2018-06-16T15:45:45.967Z,97852.09
2018-06-16T15:48:14.904Z,97846.91
2018-06-16T15:50:43.849Z,97841.55
2018-06-16T15:53:12.880Z,97831.37
2018-06-16T15:55:42.596Z,97831.14
2018-06-16T15:58:11.592Z,97827.84
2018-06-16T16:00:41.450Z,97825.05
2018-06-16T16:03:10.446Z,97824.78
2018-06-16T16:05:39.486Z,97822.57
2018-06-16T16:08:08.523Z,97825.05
2018-06-16T16:10:37.448Z,97826.98
2018-06-16T16:13:07.298Z,97823.40
2018-06-16T16:15:36.314Z,97820.64
2018-06-16T16:18:05.290Z,97827.78
2018-06-16T16:20:34.220Z,97833.58
2018-06-16T16:23:03.330Z,97834.96
2018-06-16T16:25:32.272Z,97830.57
2018-06-16T16:28:01.736Z,97828.89
2018-06-16T16:30:31.432Z,97834.13
2018-06-16T16:33:00.411Z,97832.72
2018-06-16T16:35:29.320Z,97837.72
2018-06-16T16:37:58.469Z,97842.16
2018-06-16T16:40:27.992Z,97839.72
2018-06-16T16:42:56.997Z,97856.25
2018-06-16T16:45:26.077Z,97867.30
2018-06-16T16:47:55.025Z,97866.52
2018-06-16T16:50:24.044Z,97869.02
2018-06-16T16:52:53.594Z,97875.08
2018-06-16T16:55:22.574Z,97873.99
2018-06-16T16:57:51.551Z,97867.67
2018-06-16T17:00:20.525Z,97874.02
2018-06-16T17:02:49.529Z,97870.74
2018-06-16T17:05:18.495Z,97877.92
2018-06-16T17:07:47.594Z,97879.59
2018-06-16T17:10:16.548Z,97892.03
2018-06-16T17:12:45.597Z,97885.69
2018-06-16T17:15:14.679Z,97889.55
2018-06-16T17:17:43.718Z,97889.27
2018-06-16T17:20:12.818Z,97895.87
2018-06-16T17:22:42.234Z,97903.05
2018-06-16T17:25:12.023Z,97908.28
2018-06-16T17:27:40.952Z,97907.73
2018-06-16T17:30:10.075Z,97904.17
2018-06-16T17:32:39.268Z,97905.55
2018-06-16T17:35:08.281Z,97907.73
2018-06-16T17:37:38.294Z,97908.00
2018-06-16T17:40:08.220Z,97913.52
2018-06-16T17:42:37.349Z,97917.11
2018-06-16T17:45:07.022Z,97916.55
2018-06-16T17:47:36.690Z,97913.23
2018-06-16T17:50:05.763Z,97917.63
2018-06-16T17:52:36.142Z,97920.13
2018-06-16T17:55:05.244Z,97911.30
2018-06-16T17:57:34.262Z,97914.34
2018-06-16T18:00:03.376Z,97910.22
2018-06-16T18:02:32.480Z,97909.38
2018-06-16T18:05:01.570Z,97908.55
2018-06-16T18:07:30.533Z,97917.63
2018-06-16T18:10:01.197Z,97913.50
2018-06-16T18:12:31.057Z,97915.15
2018-06-16T18:15:00.495Z,97920.63
2018-06-16T18:17:30.364Z,97915.12
2018-06-16T18:19:59.814Z,97911.26
2018-06-16T18:22:29.220Z,97915.91
2018-06-16T18:24:58.439Z,97921.41
2018-06-16T18:27:27.805Z,97932.95
2018-06-16T18:29:57.095Z,97942.03
2018-06-16T18:32:26.478Z,97942.03
2018-06-16T18:34:55.968Z,97945.30
2018-06-16T18:37:25.207Z,97958.25
2018-06-16T18:39:54.534Z,97961.55
2018-06-16T18:42:25.773Z,97968.13
2018-06-16T18:44:55.189Z,97977.50
2018-06-16T18:47:24.400Z,97986.04
2018-06-16T18:49:53.628Z,97990.68
2018-06-16T18:52:23.317Z,97997.53
2018-06-16T18:54:53.746Z,97998.36
2018-06-16T18:57:22.975Z,98004.66
2018-06-16T18:59:52.171Z,98006.29
2018-06-16T19:02:21.476Z,98010.92
2018-06-16T19:04:50.688Z,98020.26
2018-06-16T19:07:19.915Z,98027.13
2018-06-16T19:09:49.558Z,98036.21
2018-06-16T19:12:18.503Z,98042.00
2018-06-16T19:14:48.130Z,98041.16
2018-06-16T19:17:17.186Z,98044.71
2018-06-16T19:19:46.160Z,98050.20
2018-06-16T19:22:15.114Z,98047.95
2018-06-16T19:24:44.790Z,98047.88
2018-06-16T19:27:13.745Z,98037.13
2018-06-16T19:29:43.736Z,98034.53
2018-06-16T19:32:12.743Z,98026.98
2018-06-16T19:34:41.798Z,98025.84
2018-06-16T19:37:10.777Z,98034.32
2018-06-16T19:39:39.932Z,98034.55
2018-06-16T19:42:08.995Z,98038.25
2018-06-16T19:44:37.947Z,98036.42
2018-06-16T19:47:07.022Z,98029.49
2018-06-16T19:49:36.296Z,98040.11
2018-06-16T19:52:05.377Z,98041.47
2018-06-16T19:54:34.518Z,98037.34
2018-06-16T19:57:04.103Z,98040.88
2018-06-16T19:59:33.108Z,98037.52
2018-06-16T20:02:02.165Z,98048.23
2018-06-16T20:04:31.180Z,98063.28
2018-06-16T20:07:00.201Z,98068.97
2018-06-16T20:09:30.275Z,98065.84
2018-06-16T20:11:59.308Z,98041.32
2018-06-16T20:14:29.314Z,98030.24
2018-06-16T20:16:58.447Z,98043.68
2018-06-16T20:19:27.449Z,98044.93
2018-06-16T20:21:56.944Z,98050.02
2018-06-16T20:24:25.989Z,98053.41
2018-06-16T20:26:55.008Z,98056.06
2018-06-16T20:29:23.995Z,98066.93
2018-06-16T20:31:53.138Z,98072.80
2018-06-16T20:34:22.420Z,98079.94
2018-06-16T20:36:51.525Z,98079.67
2018-06-16T20:39:20.547Z,98076.04
2018-06-16T20:41:49.572Z,98078.16
2018-06-16T20:44:18.571Z,98071.73
2018-06-16T20:46:47.664Z,98067.77
2018-06-16T20:49:16.631Z,98065.22
2018-06-16T20:51:45.683Z,98057.05
2018-06-16T20:54:14.867Z,98052.41
2018-06-16T20:56:43.920Z,98047.57
2018-06-16T20:59:13.082Z,98038.16
2018-06-16T21:01:42.183Z,98024.72
2018-06-16T21:04:12.160Z,98024.78
2018-06-16T21:06:41.161Z,98031.16
2018-06-16T21:09:11.866Z,98033.15
2018-06-16T21:11:40.930Z,98038.19
2018-06-16T21:14:10.100Z,98026.73
2018-06-16T21:16:39.200Z,98013.08
2018-06-16T21:19:08.678Z,98009.06
2018-06-16T21:21:37.662Z,97998.61
2018-06-16T21:24:06.728Z,97998.02
2018-06-16T21:26:35.683Z,97987.34
2018-06-16T21:29:05.464Z,97991.44
2018-06-16T21:31:34.518Z,97986.09
2018-06-16T21:34:05.075Z,97991.03
2018-06-16T21:36:34.016Z,97982.73
2018-06-16T21:39:03.397Z,97981.36
2018-06-16T21:41:32.487Z,97986.59
2018-06-16T21:44:01.432Z,97993.23
2018-06-16T21:46:30.550Z,98008.08
2018-06-16T21:49:00.126Z,98015.09
2018-06-16T21:51:29.901Z,98009.35
2018-06-16T21:53:59.927Z,98009.69
2018-06-16T21:56:28.873Z,98004.38
2018-06-16T21:58:57.878Z,97992.84
2018-06-16T22:01:34.636Z,97993.41
2018-06-16T22:04:04.181Z,97981.30
2018-06-16T22:06:34.000Z,97987.34
2018-06-16T22:09:04.420Z,97981.56
2018-06-16T22:11:33.586Z,97982.67
2018-06-16T22:14:02.504Z,97962.20
2018-06-16T22:16:31.639Z,97955.90
2018-06-16T22:19:00.692Z,97958.09
2018-06-16T22:21:30.556Z,97957.35
2018-06-16T22:23:59.619Z,97953.52
2018-06-16T22:26:28.585Z,97955.98
2018-06-16T22:28:57.534Z,97956.81
2018-06-16T22:31:26.548Z,97958.48
2018-06-16T22:33:56.131Z,97956.81
2018-06-16T22:36:25.444Z,97955.98
2018-06-16T22:38:54.718Z,97959.47
2018-06-16T22:41:23.772Z,97955.03
2018-06-16T22:43:52.719Z,97967.62
2018-06-16T22:46:21.837Z,97971.42
2018-06-16T22:48:50.812Z,97969.45
2018-06-16T22:51:19.847Z,97987.34
2018-06-16T22:53:49.966Z,97981.56
2018-06-16T22:56:19.102Z,97993.47
2018-06-16T22:58:48.049Z,97994.33
2018-06-16T23:01:17.819Z,98001.17
2018-06-16T23:03:47.452Z,98017.33
2018-06-16T23:06:16.500Z,98016.20
2018-06-16T23:08:45.441Z,98012.09
2018-06-16T23:11:15.084Z,98013.73
2018-06-16T23:13:44.105Z,98022.50
2018-06-16T23:16:13.999Z,98023.06
2018-06-16T23:18:42.965Z,98032.59
2018-06-16T23:21:12.074Z,98036.56
2018-06-16T23:23:41.631Z,98028.13
2018-06-16T23:26:10.616Z,98050.22
2018-06-16T23:28:40.162Z,98044.98
2018-06-16T23:31:09.532Z,98052.16
2018-06-16T23:33:38.490Z,98058.13
2018-06-16T23:36:08.422Z,98061.26
2018-06-16T23:38:37.386Z,98061.86
2018-06-16T23:41:06.342Z,98054.42
2018-06-16T23:43:35.875Z,98056.36
2018-06-16T23:46:05.877Z,98052.02
2018-06-16T23:48:34.835Z,98048.15
2018-06-16T23:51:04.747Z,98045.20
2018-06-16T23:53:34.607Z,98044.64
2018-06-16T23:56:04.967Z,98033.09
2018-06-16T23:58:34.958Z,98032.53
